KSSN weather

CLOSED Seneca Army Field
Romulus, New York, United States

Public forecast

Using degrees Fahrenheit for public forecast. Weather courtesy of forecast.io.

METAR (pilot weather report)

Closest report is Penn Yan Airport, 8.9 nm (16.4 km) WSW. Retrieved 2019/09/23 15:53 UTC (34 minutes ago):

KPEO 231553Z AUTO 22008KT 10SM CLR 26/18 A2980 RMK AO2 SLP084 T02610178

TAF (pilot weather forecast)

Closest forecast is Ithaca Tompkins Regional Airport, 23.1 nm (42.7 km) SE. Retrieved 2019/09/23 12:42 UTC (4 hours ago):

TAF KITH 231139Z 2312/2412 19010KT P6SM OVC150 FM231600 23010G18KT P6SM BKN060 OVC120 FM231800 26012G20KT P6SM -SHRA BKN050 FM240000 28010KT P6SM SCT050 BKN100 FM240600 28007KT P6SM BKN025 FM240800 29007KT P6SM BKN015 OVC040